»·PEaware :: N4714R KLAS-KIFP

N4714R :: KLAS-KIFP

FLIGHT INFORMATION

Flight Status: Arrived
Operator: Privately registered:
United States
More flights under this callsign
Pilot: Matt C. (16379)
Aircraft: CESSNA 172 SKYHAWK
(C172)
More flights by this aircraft type
Origin: KLAS McCarran Intl
United States
Destination: KIFP Laughlin/Bullhead Intl
United States
More flights between these airports :: More routes between these airports
Route: +
File this flight plan on PilotEdge
Remarks:
Altitude:
(Current/Filed)
5,500ft
Speed:
(Current/Filed)
0kts
Departed: 22-Nov-17 10:14 PM
Arrived: 22-Nov-17 10:50 PM
Distance/Time
Traveled:
63nm/0:36
Distance/Time
To Go:
Arrived

Flight Plot

Page will automatically refresh every two minutes.


Map Options




Map Legend


Flown Route
Filed Route
Departure Airport
Arrival Airport
Navaid (VOR, NDB)
Fix

Horizontal Profiles

Position Reports

Time Latitude Longitude Heading Altitude Ground
Speed
22-Nov-17 22:04 36.088604 -115.153926 359 2145ft 0kts
22-Nov-17 22:05 36.088604 -115.153926 359 2145ft 0kts
22-Nov-17 22:06 36.088604 -115.153926 359 2145ft 0kts
22-Nov-17 22:07 36.088604 -115.153926 359 2145ft 0kts
22-Nov-17 22:08 36.088604 -115.153926 359 2145ft 0kts
22-Nov-17 22:09 36.088604 -115.153926 359 2145ft 0kts
22-Nov-17 22:10 36.088604 -115.153926 359 2145ft 0kts
22-Nov-17 22:11 36.088604 -115.153926 359 2145ft 0kts
22-Nov-17 22:12 36.088604 -115.153926 359 2145ft 0kts
22-Nov-17 22:13 36.088604 -115.153926 359 2145ft 0kts
22-Nov-17 22:14 36.089244 -115.154955 301 2145ft 11kts
22-Nov-17 22:15 36.093971 -115.153973 24 2145ft 22kts
22-Nov-17 22:16 36.096962 -115.152967 297 2145ft 0kts
22-Nov-17 22:17 36.097046 -115.153039 290 2145ft 0kts
22-Nov-17 22:18 36.097046 -115.153039 290 2145ft 0kts
22-Nov-17 22:19 36.091810 -115.157564 200 2313ft 65kts
22-Nov-17 22:20 36.071859 -115.155962 172 3374ft 76kts
22-Nov-17 22:21 36.049734 -115.156354 183 4159ft 89kts
22-Nov-17 22:22 36.018094 -115.160681 186 3728ft 133kts
22-Nov-17 22:23 35.983149 -115.166192 186 3515ft 134kts
22-Nov-17 22:24 35.947885 -115.170067 183 3650ft 125kts
22-Nov-17 22:25 35.913766 -115.174469 186 3983ft 108kts
22-Nov-17 22:26 35.886692 -115.162759 149 4513ft 107kts
22-Nov-17 22:27 35.862885 -115.140663 137 5021ft 108kts
22-Nov-17 22:28 35.843329 -115.110746 115 5263ft 127kts
22-Nov-17 22:29 35.827817 -115.070697 115 5246ft 130kts
22-Nov-17 22:30 35.806820 -115.035811 143 5255ft 129kts
22-Nov-17 22:31 35.776284 -115.011982 149 5237ft 132kts
22-Nov-17 22:32 35.745693 -114.989515 149 5253ft 127kts
22-Nov-17 22:33 35.715624 -114.967423 149 5241ft 126kts
22-Nov-17 22:34 35.685593 -114.945379 149 5257ft 126kts
22-Nov-17 22:35 35.656466 -114.924016 149 5245ft 125kts
22-Nov-17 22:36 35.626224 -114.901855 149 5263ft 126kts
22-Nov-17 22:37 35.596587 -114.880154 149 5337ft 121kts
22-Nov-17 22:38 35.567271 -114.858706 149 5345ft 124kts
22-Nov-17 22:39 35.537601 -114.837021 149 5344ft 124kts
22-Nov-17 22:40 35.507591 -114.815106 149 5342ft 127kts
22-Nov-17 22:41 35.478034 -114.793538 149 5417ft 121kts
22-Nov-17 22:42 35.449455 -114.772695 149 5626ft 117kts
22-Nov-17 22:43 35.421751 -114.752425 147 5965ft 114kts
22-Nov-17 22:44 35.393454 -114.730909 148 6116ft 124kts
22-Nov-17 22:45 35.363059 -114.711126 152 6323ft 120kts
22-Nov-17 22:46 35.333038 -114.691829 154 6442ft 122kts
22-Nov-17 22:47 35.301890 -114.672835 152 6430ft 130kts
22-Nov-17 22:48 35.269612 -114.646267 147 5786ft 140kts
22-Nov-17 22:49 35.236376 -114.618441 149 4962ft 146kts
22-Nov-17 22:50 35.200049 -114.593719 162 2949ft 149kts
22-Nov-17 22:51 35.166427 -114.572641 177 1562ft 101kts
22-Nov-17 22:52 35.142027 -114.576209 194 1673ft 74kts
22-Nov-17 22:53 35.131584 -114.567050 82 1234ft 66kts
22-Nov-17 22:54 35.146601 -114.558726 356 742ft 60kts
22-Nov-17 22:55 35.155988 -114.558295 55 705ft 0kts
22-Nov-17 22:56 35.155996 -114.557977 103 705ft 15kts

Navigation Log

Ident Type
1. KLAS Airport
2. KIFP Airport